createdAt,value
2022-09-02T00:01:37.896Z,186.40
2022-09-02T00:04:08.348Z,182.05
2022-09-02T00:06:36.459Z,181.10
2022-09-02T00:09:06.427Z,196.77
2022-09-02T00:11:34.990Z,217.23
2022-09-02T00:14:06.150Z,170.82
2022-09-02T00:16:33.461Z,218.37
2022-09-02T00:19:02.503Z,204.48
2022-09-02T00:21:31.503Z,177.65
2022-09-02T00:23:58.343Z,196.80
2022-09-02T00:26:25.954Z,202.10
2022-09-02T00:28:55.988Z,182.68
2022-09-02T00:31:25.286Z,194.60
2022-09-02T00:33:52.261Z,205.33
2022-09-02T00:36:19.525Z,197.05
2022-09-02T00:38:46.702Z,200.90
2022-09-02T00:41:14.155Z,178.23
2022-09-02T00:43:48.747Z,187.00
2022-09-02T00:46:18.991Z,175.57
2022-09-02T00:49:08.646Z,199.57
2022-09-02T00:51:52.303Z,155.65
2022-09-02T00:54:22.984Z,170.45
2022-09-02T00:56:53.850Z,153.80
2022-09-02T00:59:54.571Z,143.50
2022-09-02T01:02:25.266Z,153.98
2022-09-02T01:04:56.592Z,152.55
2022-09-02T01:07:25.956Z,150.95
2022-09-02T01:09:55.475Z,172.30
2022-09-02T01:12:24.171Z,193.32
2022-09-02T01:14:51.741Z,199.47
2022-09-02T01:17:20.270Z,200.77
2022-09-02T01:19:53.554Z,163.03
2022-09-02T01:22:26.519Z,188.25
2022-09-02T01:24:57.798Z,204.93
2022-09-02T01:27:24.844Z,204.57
2022-09-02T01:29:54.566Z,176.87
2022-09-02T01:32:23.110Z,197.30
2022-09-02T01:34:51.062Z,169.83
2022-09-02T01:37:18.714Z,218.07
2022-09-02T01:39:46.795Z,204.85
2022-09-02T01:42:15.304Z,161.23
2022-09-02T01:44:45.595Z,203.57
2022-09-02T01:47:14.817Z,211.00
2022-09-02T01:49:42.142Z,196.00
2022-09-02T01:52:12.768Z,170.10
2022-09-02T01:54:40.349Z,187.57
2022-09-02T01:57:08.883Z,184.90
2022-09-02T01:59:35.754Z,211.02
2022-09-02T02:02:03.509Z,173.77
2022-09-02T02:04:31.405Z,192.30
2022-09-02T02:06:59.677Z,197.57
2022-09-02T02:09:26.635Z,192.30
2022-09-02T02:11:54.077Z,152.52
2022-09-02T02:14:21.563Z,191.33
2022-09-02T02:16:50.353Z,197.77
2022-09-02T02:19:18.922Z,206.18
2022-09-02T02:21:47.707Z,195.80
2022-09-02T02:24:14.738Z,178.77
2022-09-02T02:26:41.931Z,208.13
2022-09-02T02:29:10.103Z,210.23
2022-09-02T02:31:38.309Z,181.25
2022-09-02T02:34:05.843Z,191.57
2022-09-02T02:36:34.123Z,205.30
2022-09-02T02:39:01.561Z,182.30
2022-09-02T02:41:30.935Z,204.93
2022-09-02T02:43:58.190Z,203.63
2022-09-02T02:46:27.164Z,190.15
2022-09-02T02:48:54.022Z,195.88
2022-09-02T02:51:20.872Z,197.50
2022-09-02T02:53:48.703Z,176.38
2022-09-02T02:56:15.776Z,213.40
2022-09-02T02:58:42.588Z,178.25
2022-09-02T03:01:09.558Z,175.60
2022-09-02T03:03:36.759Z,188.73
2022-09-02T03:06:04.635Z,207.77
2022-09-02T03:08:32.059Z,137.97
2022-09-02T03:10:59.966Z,182.13
2022-09-02T03:13:32.184Z,156.80
2022-09-02T03:16:01.474Z,146.35
2022-09-02T03:18:28.448Z,157.93
2022-09-02T03:20:56.517Z,159.03
2022-09-02T03:23:23.983Z,157.20
2022-09-02T03:25:51.452Z,161.50
2022-09-02T03:28:29.883Z,170.48
2022-09-02T03:30:58.158Z,164.85
2022-09-02T03:33:26.478Z,165.93
2022-09-02T03:35:54.136Z,70.43
2022-09-02T03:38:22.693Z,110.28
2022-09-02T03:40:50.635Z,119.15
2022-09-02T03:43:18.720Z,116.32
2022-09-02T03:45:46.503Z,102.97
2022-09-02T03:48:15.274Z,129.13
2022-09-02T03:50:47.074Z,154.10
2022-09-02T03:53:19.353Z,156.57
2022-09-02T03:55:50.996Z,134.55
2022-09-02T03:58:20.079Z,153.27
2022-09-02T04:00:53.573Z,153.55
2022-09-02T04:03:22.505Z,153.20
2022-09-02T04:05:52.237Z,157.40
2022-09-02T04:08:19.948Z,158.73
2022-09-02T04:10:48.242Z,118.43
2022-09-02T04:13:17.019Z,161.50
2022-09-02T04:15:47.887Z,149.13
2022-09-02T04:18:17.333Z,147.27
2022-09-02T04:20:45.168Z,172.53
2022-09-02T04:23:12.881Z,165.73
2022-09-02T04:25:43.423Z,148.38
2022-09-02T04:28:12.931Z,165.60
2022-09-02T04:30:42.094Z,165.48
2022-09-02T04:33:10.432Z,159.73
2022-09-02T04:35:45.699Z,166.18
2022-09-02T04:38:16.502Z,166.55
2022-09-02T04:40:45.691Z,142.57
2022-09-02T04:43:14.199Z,150.57
2022-09-02T04:45:43.704Z,171.43
2022-09-02T04:48:13.202Z,160.02
2022-09-02T04:50:41.914Z,161.27
2022-09-02T04:53:09.870Z,165.52
2022-09-02T04:55:40.643Z,124.80
2022-09-02T04:58:10.961Z,146.15
2022-09-02T05:00:39.556Z,166.98
2022-09-02T05:03:11.675Z,169.80
2022-09-02T05:05:40.630Z,117.43
2022-09-02T05:08:09.991Z,176.13
2022-09-02T05:10:39.125Z,185.05
2022-09-02T05:13:06.966Z,156.20
2022-09-02T05:15:34.249Z,185.23
2022-09-02T05:18:02.217Z,158.30
2022-09-02T05:20:32.218Z,158.00
2022-09-02T05:22:59.495Z,171.25
2022-09-02T05:25:26.633Z,177.27
2022-09-02T05:27:54.343Z,163.90
2022-09-02T05:30:21.870Z,158.13
2022-09-02T05:32:49.891Z,172.00
2022-09-02T05:35:17.031Z,161.27
2022-09-02T05:37:44.543Z,154.57
2022-09-02T05:40:12.344Z,179.18
2022-09-02T05:42:43.473Z,135.20
2022-09-02T05:45:12.040Z,178.70
2022-09-02T05:47:43.934Z,172.43
2022-09-02T05:50:11.138Z,180.23
2022-09-02T05:52:43.156Z,184.43
2022-09-02T05:55:10.298Z,193.32
2022-09-02T05:57:39.373Z,178.40
2022-09-02T06:00:09.767Z,176.33
2022-09-02T06:02:43.844Z,173.68
2022-09-02T06:05:23.263Z,198.93
2022-09-02T06:07:58.129Z,192.60
2022-09-02T06:10:25.317Z,176.23
2022-09-02T06:12:52.904Z,184.80
2022-09-02T06:15:22.786Z,187.18
2022-09-02T06:17:51.835Z,212.80
2022-09-02T06:20:18.886Z,202.43
2022-09-02T06:22:48.523Z,164.40
2022-09-02T06:25:15.431Z,177.98
2022-09-02T06:27:42.371Z,200.07
2022-09-02T06:30:10.029Z,172.63
2022-09-02T06:32:36.938Z,160.07
2022-09-02T06:35:09.910Z,143.97
2022-09-02T06:37:38.042Z,159.80
2022-09-02T06:40:05.895Z,202.97
2022-09-02T06:42:32.824Z,171.95
2022-09-02T06:45:26.256Z,153.25
2022-09-02T06:47:55.114Z,167.45
2022-09-02T06:50:22.147Z,169.82
2022-09-02T06:52:50.039Z,197.23
2022-09-02T06:55:18.089Z,167.27
2022-09-02T06:57:44.979Z,201.33
2022-09-02T07:00:14.011Z,204.65
2022-09-02T07:02:42.599Z,234.73
2022-09-02T07:05:10.059Z,217.07
2022-09-02T07:07:40.468Z,190.68
2022-09-02T07:10:13.861Z,211.93
2022-09-02T07:12:44.595Z,201.33
2022-09-02T07:15:15.013Z,217.25
2022-09-02T07:17:43.195Z,215.18
2022-09-02T07:20:23.453Z,220.85
2022-09-02T07:22:56.140Z,221.38
2022-09-02T07:25:25.342Z,205.25
2022-09-02T07:27:53.156Z,191.05
2022-09-02T07:30:20.217Z,204.50
2022-09-02T07:32:50.791Z,187.60
2022-09-02T07:35:21.283Z,219.65
2022-09-02T07:37:49.320Z,207.17
2022-09-02T07:40:16.696Z,212.90
2022-09-02T07:42:44.248Z,209.90
2022-09-02T07:45:12.814Z,203.70
2022-09-02T07:47:41.487Z,198.68
2022-09-02T07:50:20.781Z,199.17
2022-09-02T07:52:57.176Z,201.73
2022-09-02T07:55:26.358Z,181.93
2022-09-02T07:57:56.607Z,232.52
2022-09-02T08:00:27.586Z,233.43
2022-09-02T08:02:56.601Z,218.27
2022-09-02T08:05:28.966Z,226.13
2022-09-02T08:07:55.965Z,208.55
2022-09-02T08:10:27.099Z,242.45
2022-09-02T08:12:53.966Z,219.02
2022-09-02T08:15:21.528Z,234.85
2022-09-02T08:17:48.711Z,213.63
2022-09-02T08:20:17.434Z,227.52
2022-09-02T08:22:46.722Z,216.85
2022-09-02T08:25:18.974Z,215.73
2022-09-02T08:27:46.265Z,218.15
2022-09-02T08:30:14.778Z,198.38
2022-09-02T08:32:41.904Z,208.50
2022-09-02T08:35:10.161Z,230.82
2022-09-02T08:37:38.053Z,229.23
2022-09-02T08:40:13.386Z,229.40
2022-09-02T08:42:51.153Z,234.70
2022-09-02T08:45:30.492Z,181.23
2022-09-02T08:48:16.186Z,192.63
2022-09-02T08:50:45.335Z,196.93
2022-09-02T08:53:12.230Z,227.48
2022-09-02T08:55:50.743Z,196.90
2022-09-02T08:58:20.617Z,210.57
2022-09-02T09:01:00.624Z,224.73
2022-09-02T09:03:48.831Z,188.07
2022-09-02T09:06:53.931Z,222.88
2022-09-02T09:09:41.056Z,199.18
2022-09-02T09:12:34.419Z,232.40
2022-09-02T09:15:16.699Z,224.43
2022-09-02T09:17:54.155Z,182.98
2022-09-02T09:20:25.315Z,233.40
2022-09-02T09:22:56.861Z,223.55
2022-09-02T09:25:29.693Z,221.68
2022-09-02T09:27:58.027Z,237.07
2022-09-02T09:30:25.466Z,214.57
2022-09-02T09:32:57.412Z,202.70
2022-09-02T09:35:24.822Z,202.47
2022-09-02T09:37:53.034Z,211.48
2022-09-02T09:40:25.859Z,173.50
2022-09-02T09:43:15.347Z,173.57
2022-09-02T09:45:47.947Z,173.73
2022-09-02T09:48:38.050Z,176.30
2022-09-02T09:51:04.818Z,169.73
2022-09-02T09:53:34.073Z,178.43
2022-09-02T09:56:28.335Z,222.38
2022-09-02T09:58:55.216Z,183.73
2022-09-02T10:01:28.139Z,209.98
2022-09-02T10:04:20.786Z,213.27
2022-09-02T10:06:54.590Z,241.80
2022-09-02T10:09:21.368Z,245.93
2022-09-02T10:12:05.018Z,228.70
2022-09-02T10:14:45.876Z,239.95
2022-09-02T10:17:22.195Z,250.40
2022-09-02T10:19:54.929Z,234.77
2022-09-02T10:22:59.595Z,251.15
2022-09-02T10:25:30.392Z,249.15
2022-09-02T10:28:15.875Z,208.60
2022-09-02T10:31:05.581Z,257.07
2022-09-02T10:34:04.926Z,250.63
2022-09-02T10:36:43.965Z,260.83
2022-09-02T10:39:17.686Z,204.43
2022-09-02T10:44:31.276Z,247.17
2022-09-02T10:46:58.110Z,258.55
2022-09-02T10:50:02.511Z,242.38
2022-09-02T10:52:50.865Z,235.73
2022-09-02T10:55:55.115Z,250.43
2022-09-02T10:58:35.135Z,254.25
2022-09-02T11:01:03.150Z,263.88
2022-09-02T11:03:38.306Z,233.40
2022-09-02T11:06:31.677Z,247.48
2022-09-02T11:09:21.226Z,257.95
2022-09-02T11:12:00.108Z,254.18
2022-09-02T11:14:41.576Z,261.90
2022-09-02T11:17:41.253Z,246.20
2022-09-02T11:20:26.807Z,261.13
2022-09-02T11:23:08.586Z,237.65
2022-09-02T11:25:49.346Z,247.07
2022-09-02T11:28:24.192Z,259.87
2022-09-02T11:31:10.319Z,238.13
2022-09-02T11:36:30.941Z,265.58
2022-09-02T11:39:11.886Z,264.38
2022-09-02T11:41:54.520Z,251.90
2022-09-02T11:44:52.744Z,259.13
2022-09-02T11:47:26.237Z,278.45
2022-09-02T11:50:11.581Z,283.17
2022-09-02T11:53:07.561Z,275.45
2022-09-02T11:55:40.019Z,274.08
2022-09-02T11:58:06.875Z,270.65
2022-09-02T12:00:58.361Z,274.02
2022-09-02T12:03:44.156Z,279.00
2022-09-02T12:06:21.407Z,295.30
2022-09-02T12:08:50.051Z,286.98
2022-09-02T12:11:47.889Z,293.23
2022-09-02T12:14:23.916Z,299.50
2022-09-02T12:17:06.019Z,307.33
2022-09-02T12:19:51.661Z,321.27
2022-09-02T12:22:18.890Z,296.25
2022-09-02T12:25:24.797Z,253.52
2022-09-02T12:28:30.909Z,374.42
2022-09-02T12:31:10.223Z,369.85
2022-09-02T12:33:41.146Z,373.83
2022-09-02T12:36:10.925Z,393.92
2022-09-02T12:38:39.532Z,391.17
2022-09-02T12:41:14.866Z,463.67
2022-09-02T12:43:53.150Z,475.38
2022-09-02T12:46:44.323Z,505.17
2022-09-02T12:49:35.651Z,557.47
2022-09-02T12:52:09.231Z,499.33
2022-09-02T12:54:39.024Z,540.60
2022-09-02T12:57:07.997Z,653.72
2022-09-02T12:59:39.995Z,606.33
2022-09-02T13:02:34.273Z,597.10
2022-09-02T13:05:40.335Z,660.55
2022-09-02T13:08:36.593Z,639.85
2022-09-02T13:11:25.301Z,641.90
2022-09-02T13:14:14.914Z,658.15
2022-09-02T13:17:25.775Z,573.15
2022-09-02T13:20:20.246Z,574.95
2022-09-02T13:22:50.414Z,576.50
2022-09-02T13:25:39.277Z,603.37
2022-09-02T13:28:35.746Z,595.25
2022-09-02T13:31:02.934Z,609.33
2022-09-02T13:33:29.842Z,635.70
2022-09-02T13:36:01.003Z,677.73
2022-09-02T13:38:30.255Z,622.03
2022-09-02T13:40:57.116Z,601.33
2022-09-02T13:43:26.977Z,602.50
2022-09-02T13:45:59.550Z,602.30
2022-09-02T13:48:28.907Z,563.88
2022-09-02T13:50:58.177Z,661.83
2022-09-02T13:56:35.837Z,736.72
2022-09-02T13:59:02.872Z,778.47
2022-09-02T14:01:36.217Z,759.97
2022-09-02T14:04:11.595Z,725.35
2022-09-02T14:06:42.501Z,720.78
2022-09-02T14:09:21.058Z,733.67
2022-09-02T14:11:49.556Z,683.50
2022-09-02T14:14:19.954Z,720.92
2022-09-02T14:16:46.879Z,793.13
2022-09-02T14:19:16.646Z,871.67
2022-09-02T14:21:52.799Z,870.70
2022-09-02T14:24:23.662Z,963.60
2022-09-02T14:26:53.553Z,999.90
2022-09-02T14:29:21.786Z,999.90
2022-09-02T14:32:10.586Z,952.23
2022-09-02T14:34:44.509Z,927.75
2022-09-02T14:37:29.382Z,728.45
2022-09-02T14:40:08.583Z,804.53
2022-09-02T14:42:43.494Z,814.30
2022-09-02T14:45:11.944Z,786.22
2022-09-02T14:47:40.015Z,805.38
2022-09-02T14:50:15.235Z,774.07
2022-09-02T14:52:48.883Z,759.67
2022-09-02T14:55:46.790Z,999.90
2022-09-02T14:58:15.034Z,829.23
2022-09-02T15:00:44.747Z,555.70
2022-09-02T15:03:17.066Z,585.88
2022-09-02T15:05:44.770Z,593.65
2022-09-02T15:08:12.487Z,556.63
2022-09-02T15:10:40.651Z,505.40
2022-09-02T15:13:12.092Z,487.83
2022-09-02T15:15:40.083Z,462.13
2022-09-02T15:18:09.213Z,438.75
2022-09-02T15:20:36.415Z,417.75
2022-09-02T15:23:04.026Z,414.60
2022-09-02T15:25:30.860Z,376.98
2022-09-02T15:27:57.754Z,390.83
2022-09-02T15:30:24.624Z,307.92
2022-09-02T15:32:51.766Z,296.75
2022-09-02T15:35:18.641Z,291.10
2022-09-02T15:37:49.183Z,293.52
2022-09-02T15:40:16.136Z,278.52
2022-09-02T15:42:42.958Z,310.52
2022-09-02T15:45:10.401Z,314.52
2022-09-02T15:47:38.057Z,312.00
2022-09-02T15:50:06.020Z,337.50
2022-09-02T15:52:34.899Z,334.83
2022-09-02T15:55:02.310Z,327.48
2022-09-02T15:57:30.839Z,346.67
2022-09-02T15:59:57.698Z,350.25
2022-09-02T16:02:24.539Z,349.60
2022-09-02T16:04:52.389Z,340.30
2022-09-02T16:07:19.671Z,346.85
2022-09-02T16:09:46.458Z,318.38
2022-09-02T16:12:13.324Z,330.33
2022-09-02T16:14:40.150Z,319.00
2022-09-02T16:17:08.777Z,358.40
2022-09-02T16:19:35.642Z,334.45
2022-09-02T16:22:02.523Z,313.50
2022-09-02T16:24:29.423Z,305.35
2022-09-02T16:26:56.295Z,298.30
2022-09-02T16:29:28.167Z,344.48
2022-09-02T16:32:14.503Z,355.98
2022-09-02T16:34:45.295Z,352.17
2022-09-02T16:37:12.084Z,369.48
2022-09-02T16:39:39.532Z,373.07
2022-09-02T16:42:06.810Z,358.80
2022-09-02T16:44:34.153Z,362.67
2022-09-02T16:47:01.162Z,400.02
2022-09-02T16:49:27.943Z,397.27
2022-09-02T16:51:58.337Z,410.30
2022-09-02T16:54:31.236Z,405.30
2022-09-02T16:56:59.542Z,378.80
2022-09-02T16:59:26.487Z,394.88
2022-09-02T17:01:53.381Z,420.37
2022-09-02T17:04:20.163Z,418.38
2022-09-02T17:06:47.128Z,426.52
2022-09-02T17:09:16.214Z,404.98
2022-09-02T17:11:45.055Z,418.58
2022-09-02T17:14:15.245Z,553.05
2022-09-02T17:16:49.257Z,475.00
2022-09-02T17:19:21.347Z,522.78
2022-09-02T17:21:51.581Z,608.00
2022-09-02T17:24:21.139Z,624.58
2022-09-02T17:26:50.908Z,715.05
2022-09-02T17:29:47.532Z,649.45
2022-09-02T17:32:07.454Z,818.40
2022-09-02T17:34:34.397Z,781.42
2022-09-02T17:37:01.135Z,611.08
2022-09-02T17:39:28.184Z,700.97
2022-09-02T17:41:55.124Z,586.55
2022-09-02T17:44:26.402Z,598.00
2022-09-02T17:46:58.279Z,491.17
2022-09-02T17:49:25.639Z,501.00
2022-09-02T17:51:52.555Z,437.80
2022-09-02T17:54:19.599Z,440.52
2022-09-02T17:56:49.196Z,402.48
2022-09-02T17:59:27.988Z,393.77
2022-09-02T18:02:14.573Z,511.20
2022-09-02T18:04:56.355Z,492.98
2022-09-02T18:07:31.127Z,597.50
2022-09-02T18:09:58.045Z,494.63
2022-09-02T18:12:26.634Z,520.47
2022-09-02T18:15:02.210Z,448.77
2022-09-02T18:17:37.718Z,356.90
2022-09-02T18:20:23.610Z,352.90
2022-09-02T18:22:54.108Z,336.20
2022-09-02T18:25:44.110Z,342.63
2022-09-02T18:28:39.867Z,350.67
2022-09-02T18:31:44.438Z,368.20
2022-09-02T18:34:30.623Z,366.95
2022-09-02T18:37:06.543Z,374.10
2022-09-02T18:40:02.503Z,354.88
2022-09-02T18:42:45.454Z,338.03
2022-09-02T18:45:19.461Z,338.63
2022-09-02T18:47:53.759Z,392.27
2022-09-02T18:50:52.200Z,372.45
2022-09-02T18:53:27.131Z,315.33
2022-09-02T18:55:54.750Z,313.10
2022-09-02T18:58:44.483Z,334.90
2022-09-02T19:01:23.306Z,318.95
2022-09-02T19:03:50.941Z,336.10
2022-09-02T19:06:21.394Z,308.77
2022-09-02T19:08:50.120Z,340.30
2022-09-02T19:11:18.440Z,333.88
2022-09-02T19:13:53.543Z,325.75
2022-09-02T19:16:24.779Z,318.00
2022-09-02T19:18:51.923Z,313.77
2022-09-02T19:21:34.422Z,319.10
2022-09-02T19:24:07.313Z,314.37
2022-09-02T19:26:34.685Z,304.10
2022-09-02T19:29:04.129Z,332.20
2022-09-02T19:31:31.579Z,319.80
2022-09-02T19:34:01.634Z,319.02
2022-09-02T19:36:31.628Z,324.42
2022-09-02T19:38:59.844Z,294.38
2022-09-02T19:41:27.910Z,281.40
2022-09-02T19:43:55.331Z,292.00
2022-09-02T19:46:59.748Z,302.85
2022-09-02T19:49:09.143Z,340.10
2022-09-02T19:51:36.254Z,322.77
2022-09-02T19:54:03.200Z,333.13
2022-09-02T19:56:30.138Z,295.02
2022-09-02T19:58:57.059Z,308.30
2022-09-02T20:01:23.908Z,311.33
2022-09-02T20:03:50.725Z,295.40
2022-09-02T20:06:17.736Z,298.08
2022-09-02T20:08:45.663Z,312.90
2022-09-02T20:11:12.514Z,335.25
2022-09-02T20:13:41.651Z,292.42
2022-09-02T20:16:17.684Z,274.30
2022-09-02T20:18:45.335Z,309.70
2022-09-02T20:21:19.295Z,316.05
2022-09-02T20:23:46.160Z,299.83
2022-09-02T20:26:24.346Z,320.17
2022-09-02T20:29:03.562Z,304.35
2022-09-02T20:32:03.228Z,317.47
2022-09-02T20:34:42.036Z,324.35
2022-09-02T20:37:38.345Z,313.67
2022-09-02T20:40:45.774Z,325.13
2022-09-02T20:43:39.456Z,306.55
2022-09-02T20:46:22.371Z,311.17
2022-09-02T20:48:57.979Z,320.20
2022-09-02T20:51:35.101Z,330.50
2022-09-02T20:54:29.911Z,310.13
2022-09-02T20:57:21.672Z,284.98
2022-09-02T21:00:02.158Z,277.38
2022-09-02T21:02:37.879Z,237.63
2022-09-02T21:05:15.201Z,239.63
2022-09-02T21:07:58.838Z,240.67
2022-09-02T21:10:41.931Z,265.50
2022-09-02T21:13:19.090Z,293.15
2022-09-02T21:15:56.292Z,284.88
2022-09-02T21:18:45.339Z,292.10
2022-09-02T21:21:43.021Z,274.60
2022-09-02T21:24:22.915Z,329.80
2022-09-02T21:27:06.123Z,311.30
2022-09-02T21:29:42.024Z,322.00
2022-09-02T21:32:15.251Z,327.35
2022-09-02T21:34:52.827Z,303.42
2022-09-02T21:37:23.011Z,341.60
2022-09-02T21:40:02.142Z,348.00
2022-09-02T21:42:54.367Z,342.25
2022-09-02T21:45:39.753Z,338.60
2022-09-02T21:48:18.415Z,350.50
2022-09-02T21:51:10.844Z,340.52
2022-09-02T21:53:50.592Z,323.92
2022-09-02T21:57:02.210Z,295.60
2022-09-02T21:59:55.098Z,318.17
2022-09-02T22:02:54.821Z,330.67
2022-09-02T22:05:24.553Z,345.20
2022-09-02T22:08:19.657Z,339.87
2022-09-02T22:11:20.166Z,321.83
2022-09-02T22:13:48.203Z,333.75
2022-09-02T22:16:45.949Z,333.88
2022-09-02T22:19:13.694Z,330.15
2022-09-02T22:21:48.460Z,344.25
2022-09-02T22:24:22.387Z,272.17
2022-09-02T22:26:58.436Z,280.67
2022-09-02T22:29:50.894Z,292.52
2022-09-02T22:32:21.751Z,289.60
2022-09-02T22:35:09.367Z,280.08
2022-09-02T22:37:58.255Z,291.50
2022-09-02T22:40:28.216Z,322.17
2022-09-02T22:43:02.197Z,290.30
2022-09-02T22:45:55.327Z,311.55
2022-09-02T22:48:53.870Z,319.98
2022-09-02T22:51:48.154Z,305.88
2022-09-02T22:54:15.085Z,319.00
2022-09-02T22:56:47.876Z,315.67
2022-09-02T22:59:53.269Z,298.13
2022-09-02T23:02:56.538Z,303.77
2022-09-02T23:05:45.103Z,317.93
2022-09-02T23:08:14.115Z,288.93
2022-09-02T23:10:56.905Z,305.73
2022-09-02T23:13:41.531Z,310.33
2022-09-02T23:16:29.827Z,315.48
2022-09-02T23:19:03.936Z,311.55
2022-09-02T23:21:38.246Z,302.38
2022-09-02T23:24:26.010Z,300.77
2022-09-02T23:27:11.656Z,290.02
2022-09-02T23:29:41.400Z,301.88
2022-09-02T23:32:08.574Z,303.75
2022-09-02T23:34:44.667Z,253.98
2022-09-02T23:37:49.008Z,246.60
2022-09-02T23:40:28.102Z,276.08
2022-09-02T23:42:59.257Z,303.77
2022-09-02T23:45:29.289Z,307.52
2022-09-02T23:48:28.700Z,317.90
2022-09-02T23:51:10.414Z,316.15
2022-09-02T23:54:03.650Z,322.80
2022-09-02T23:56:46.381Z,330.63
2022-09-02T23:59:28.471Z,335.60
